Time;durP1;ratioP1;P1;durP2;ratioP2;P2;SDS_P1;SDS_P2;PMS_P1;PMS_P2;Temp;Humidity;BMP_temperature;BMP_pressure;BME280_temperature;BME280_humidity;BME280_pressure;Samples;Min_cycle;Max_cycle;Signal;HPM_P1;HPM_P2
2023/09/21 00:06:28;;;;;;;13.73;5.80;;;16.30;99.90;;;;;;1994527;71;27553;-90
2023/09/21 00:12:15;;;;;;;9.50;4.53;;;16.30;99.90;;;;;;1942446;72;27678;-90
2023/09/21 00:15:06;;;;;;;12.07;5.53;;;16.40;99.90;;;;;;1932625;73;25310;-90
2023/09/21 00:18:04;;;;;;;17.53;5.87;;;16.40;99.90;;;;;;1917341;73;25284;-90
2023/09/21 00:21:00;;;;;;;11.87;5.60;;;16.40;99.90;;;;;;1917538;73;25693;-90
2023/09/21 00:23:52;;;;;;;11.73;5.53;;;16.40;99.90;;;;;;1929285;73;25188;-90
2023/09/21 00:26:49;;;;;;;16.13;6.00;;;16.40;99.90;;;;;;1928895;73;25209;-90
2023/09/21 00:29:38;;;;;;;11.50;5.40;;;16.40;99.90;;;;;;1917649;73;25684;-90
2023/09/21 00:32:31;;;;;;;13.77;5.07;;;16.40;99.90;;;;;;1918095;73;25300;-90
2023/09/21 00:35:23;;;;;;;14.90;5.77;;;16.40;99.90;;;;;;1929520;73;25210;-90
2023/09/21 00:38:19;;;;;;;13.70;4.97;;;16.40;99.90;;;;;;1926755;73;25228;-90
2023/09/21 00:41:08;;;;;;;9.97;5.30;;;16.40;99.90;;;;;;1925144;73;25282;-90
2023/09/21 00:47:00;;;;;;;13.63;5.47;;;16.40;99.90;;;;;;1940998;72;27090;-90
2023/09/21 00:52:52;;;;;;;13.40;5.30;;;16.30;99.90;;;;;;1952240;72;28799;-90
2023/09/21 00:55:41;;;;;;;10.17;5.50;;;16.30;99.90;;;;;;1920613;74;25257;-90
2023/09/21 00:59:15;;;;;;;10.47;5.33;;;16.20;99.90;;;;;;1897267;74;25254;-90
2023/09/21 01:02:25;;;;;;;17.37;5.13;;;16.20;99.90;;;;;;1921642;74;25197;-90
2023/09/21 01:05:22;;;;;;;10.57;5.53;;;16.20;99.90;;;;;;1917245;74;25210;-90
2023/09/21 01:13:07;;;;;;;14.90;5.90;;;16.30;99.90;;;;;;1978023;71;27042;-90
2023/09/21 01:16:04;;;;;;;15.53;5.60;;;16.40;99.90;;;;;;1961179;72;25327;-91
2023/09/21 01:18:53;;;;;;;10.47;5.87;;;16.40;99.90;;;;;;2022104;69;25180;-91
2023/09/21 01:21:47;;;;;;;11.47;6.10;;;16.30;99.90;;;;;;2033931;69;25596;-91
2023/09/21 01:24:38;;;;;;;14.37;6.13;;;16.30;99.90;;;;;;2031325;70;25688;-91
2023/09/21 01:27:27;;;;;;;10.93;6.43;;;16.30;99.90;;;;;;2055561;69;25121;-91
2023/09/21 01:30:17;;;;;;;14.27;6.30;;;16.30;99.90;;;;;;2043986;69;25282;-91
2023/09/21 01:33:11;;;;;;;10.97;6.10;;;16.30;99.90;;;;;;2015390;69;25248;-91
2023/09/21 01:36:04;;;;;;;15.20;6.77;;;16.30;99.90;;;;;;2042713;69;25854;-91
2023/09/21 01:39:09;;;;;;;11.73;6.73;;;16.20;99.90;;;;;;2029326;69;25127;-91
2023/09/21 01:42:01;;;;;;;14.47;6.40;;;16.20;99.90;;;;;;2055263;69;25164;-91
2023/09/21 01:59:49;;;;;;;14.80;6.30;;;16.10;99.90;;;;;;1893490;72;26945;-90
2023/09/21 02:48:08;;;;;;;14.00;6.97;;;16.20;99.90;;;;;;1988152;71;28221;-90
2023/09/21 02:51:08;;;;;;;13.73;6.63;;;16.10;99.90;;;;;;1984064;72;25211;-90
2023/09/21 02:54:00;;;;;;;15.40;7.17;;;16.10;99.90;;;;;;1969253;72;25158;-91
2023/09/21 03:00:34;;;;;;;14.83;7.40;;;16.10;99.90;;;;;;1969061;72;25241;-90
2023/09/21 03:03:19;;;;;;;13.67;6.30;;;16.10;99.90;;;;;;2001759;71;25646;-90
2023/09/21 03:06:16;;;;;;;15.80;7.87;;;16.10;99.90;;;;;;1965605;72;25508;-90
2023/09/21 03:09:07;;;;;;;13.20;7.47;;;16.10;99.90;;;;;;1980104;72;25623;-91
2023/09/21 03:12:20;;;;;;;12.17;7.20;;;16.10;99.90;;;;;;2005152;71;25233;-90
2023/09/21 03:15:16;;;;;;;16.07;7.90;;;16.10;99.90;;;;;;1977003;71;25191;-91
2023/09/21 03:18:16;;;;;;;15.97;7.77;;;16.10;99.90;;;;;;1997651;71;25289;-91
2023/09/21 03:21:26;;;;;;;12.90;7.17;;;16.10;99.90;;;;;;1991070;71;25217;-91
2023/09/21 03:24:17;;;;;;;14.17;8.07;;;16.10;99.90;;;;;;2001315;71;25231;-91
2023/09/21 03:27:10;;;;;;;13.63;7.70;;;16.10;99.90;;;;;;1960340;72;25719;-91
2023/09/21 03:30:01;;;;;;;15.50;7.60;;;16.10;99.90;;;;;;2001449;71;25150;-90
2023/09/21 03:33:20;;;;;;;14.63;8.13;;;16.10;99.90;;;;;;2008526;71;25288;-91
2023/09/21 03:36:14;;;;;;;14.03;7.10;;;16.10;99.90;;;;;;1956893;73;25205;-90
2023/09/21 03:39:17;;;;;;;13.33;7.50;;;16.00;99.90;;;;;;2019799;69;25175;-91
2023/09/21 03:42:09;;;;;;;16.20;7.67;;;16.00;99.90;;;;;;1992231;71;25308;-90
2023/09/21 03:45:03;;;;;;;13.10;8.20;;;16.00;99.90;;;;;;2004380;71;25214;-90
2023/09/21 03:47:54;;;;;;;18.13;7.90;;;16.00;99.90;;;;;;1956347;72;25338;-90
2023/09/21 03:50:55;;;;;;;12.33;8.10;;;16.00;99.90;;;;;;1984823;71;25158;-90
2023/09/21 04:07:17;;;;;;;17.43;7.30;;;16.00;99.90;;;;;;1893793;72;27479;-89
2023/09/21 04:23:50;;;;;;;14.33;6.67;;;16.00;99.90;;;;;;1931482;73;28152;-90
2023/09/21 05:10:55;;;;;;;13.27;5.10;;;16.00;99.90;;;;;;1953987;72;28248;-90
2023/09/21 05:17:12;;;;;;;8.57;5.00;;;16.10;99.90;;;;;;2019412;69;27447;-90
2023/09/21 05:20:26;;;;;;;12.20;5.43;;;16.10;99.90;;;;;;1975807;71;25188;-90
2023/09/21 05:36:54;;;;;;;10.77;4.30;;;16.20;99.90;;;;;;1990032;71;27042;-90
2023/09/21 06:05:13;;;;;;;12.27;4.63;;;16.20;99.90;;;;;;1878671;76;29456;-90
2023/09/21 06:12:16;;;;;;;10.43;4.60;;;16.20;99.90;;;;;;1932355;72;26268;-90
2023/09/21 06:15:06;;;;;;;9.90;4.33;;;16.20;99.90;;;;;;1928738;73;25193;-90
2023/09/21 06:17:55;;;;;;;7.13;4.37;;;16.30;99.90;;;;;;1949644;73;25184;-90
2023/09/21 06:24:04;;;;;;;9.30;4.60;;;16.40;99.90;;;;;;1908125;74;27127;-90
2023/09/21 06:29:43;;;;;;;7.67;4.10;;;16.60;99.90;;;;;;1953349;72;27049;-89
2023/09/21 06:35:16;;;;;;;13.77;4.27;;;16.60;99.90;;;;;;1947253;71;26960;-89
2023/09/21 06:40:50;;;;;;;9.10;4.03;;;16.60;99.90;;;;;;2007614;69;27034;-89
2023/09/21 06:43:42;;;;;;;7.33;3.20;;;16.70;99.90;;;;;;1929012;73;25259;-90
2023/09/21 06:46:29;;;;;;;7.60;3.60;;;16.70;99.90;;;;;;1940262;73;25218;-90
2023/09/21 06:49:19;;;;;;;8.93;4.10;;;16.70;99.90;;;;;;1934436;73;25640;-89
2023/09/21 06:52:08;;;;;;;8.43;3.43;;;16.70;99.90;;;;;;1935776;73;25172;-91
2023/09/21 06:57:43;;;;;;;10.80;3.43;;;16.70;99.90;;;;;;1933989;72;27378;-89
2023/09/21 07:00:32;;;;;;;7.60;3.70;;;16.60;99.90;;;;;;1914225;73;25375;-89
2023/09/21 07:03:21;;;;;;;7.13;3.33;;;16.60;99.90;;;;;;1913621;75;25230;-89
2023/09/21 07:06:10;;;;;;;5.13;3.87;;;16.70;99.90;;;;;;1914855;75;25223;-89
2023/09/21 07:11:40;;;;;;;9.07;3.83;;;16.70;99.90;;;;;;1929848;72;27092;-90
2023/09/21 07:14:28;;;;;;;8.67;3.07;;;16.70;99.90;;;;;;1891001;75;25233;-89
2023/09/21 07:17:18;;;;;;;6.80;3.70;;;16.70;99.90;;;;;;1901027;75;25752;-89
2023/09/21 07:20:09;;;;;;;8.40;3.77;;;16.70;99.90;;;;;;1884935;75;25273;-89
2023/09/21 07:22:58;;;;;;;6.97;3.40;;;16.80;99.90;;;;;;1890678;75;26537;-89
2023/09/21 07:25:47;;;;;;;7.07;3.33;;;16.80;99.90;;;;;;1875160;75;25302;-90
2023/09/21 07:28:35;;;;;;;8.83;3.97;;;16.90;99.90;;;;;;1882951;75;25340;-89
2023/09/21 07:31:24;;;;;;;8.03;3.27;;;17.00;99.90;;;;;;1888650;75;25211;-90
2023/09/21 07:34:13;;;;;;;10.33;3.10;;;17.20;99.90;;;;;;1902920;75;25245;-89
2023/09/21 07:37:01;;;;;;;6.93;3.13;;;17.30;99.90;;;;;;1886182;75;25295;-90
2023/09/21 07:39:50;;;;;;;9.90;3.33;;;17.00;99.90;;;;;;1896533;75;25282;-89
2023/09/21 07:42:41;;;;;;;7.03;3.90;;;16.80;99.90;;;;;;1912100;74;25770;-90
2023/09/21 07:45:30;;;;;;;6.23;3.33;;;16.60;99.90;;;;;;1904618;74;25235;-89
2023/09/21 07:48:19;;;;;;;8.20;3.40;;;16.50;99.90;;;;;;1910260;74;25167;-90
2023/09/21 07:51:09;;;;;;;5.40;3.40;;;16.50;99.90;;;;;;1914319;74;25584;-89
2023/09/21 07:56:49;;;;;;;10.67;4.10;;;16.70;99.90;;;;;;1948381;72;26982;-90
2023/09/21 07:59:37;;;;;;;7.53;3.63;;;16.80;99.90;;;;;;1919123;73;25217;-90
2023/09/21 08:05:12;;;;;;;9.20;3.40;;;16.80;99.90;;;;;;1902357;74;27070;-90
2023/09/21 08:08:01;;;;;;;7.97;3.57;;;16.70;99.90;;;;;;1860132;76;25262;-90
2023/09/21 08:10:51;;;;;;;6.33;3.30;;;16.70;99.90;;;;;;1865535;76;25243;-90
2023/09/21 08:13:40;;;;;;;5.23;3.13;;;16.50;99.90;;;;;;1861927;76;25839;-90
2023/09/21 08:16:29;;;;;;;5.33;3.03;;;16.50;99.90;;;;;;1858296;76;25211;-89
2023/09/21 08:19:18;;;;;;;7.67;3.30;;;16.50;99.90;;;;;;1878079;76;25357;-90
2023/09/21 08:22:06;;;;;;;7.27;3.27;;;16.50;99.90;;;;;;1860493;76;25261;-90
2023/09/21 08:24:55;;;;;;;8.37;3.40;;;16.60;99.90;;;;;;1857775;76;25277;-93
2023/09/21 08:41:00;;;;;;;8.73;3.10;;;16.80;99.90;;;;;;1882675;75;27127;-89
2023/09/21 09:00:49;;;;;;;6.17;3.43;;;18.10;99.90;;;;;;1986582;71;26970;-89
2023/09/21 09:03:38;;;;;;;8.50;2.43;;;18.00;99.90;;;;;;1978178;71;25350;-90
2023/09/21 09:06:29;;;;;;;5.33;2.63;;;18.00;99.90;;;;;;2047336;69;25210;-89
2023/09/21 09:09:19;;;;;;;9.93;2.40;;;18.30;99.90;;;;;;2046603;68;25246;-89
2023/09/21 09:15:02;;;;;;;5.93;2.90;;;18.60;99.90;;;;;;1940957;72;27371;-89
2023/09/21 09:17:48;;;;;;;4.67;2.40;;;18.70;99.90;;;;;;1916617;73;25257;-89
2023/09/21 09:20:37;;;;;;;4.30;2.20;;;18.90;99.90;;;;;;1925385;73;25842;-89
2023/09/21 09:23:26;;;;;;;7.37;2.40;;;19.20;99.90;;;;;;1928126;73;25196;-89
2023/09/21 09:26:16;;;;;;;5.30;2.50;;;19.30;99.90;;;;;;1922093;73;25222;-89
2023/09/21 09:29:06;;;;;;;4.60;2.40;;;19.40;99.90;;;;;;1917956;73;25230;-89
2023/09/21 09:31:55;;;;;;;3.07;2.43;;;19.40;99.90;;;;;;1947702;73;25290;-91
2023/09/21 09:34:44;;;;;;;7.40;2.73;;;19.30;99.90;;;;;;1887358;75;25738;-91
2023/09/21 09:37:34;;;;;;;4.60;2.60;;;19.30;99.90;;;;;;1892957;75;25225;-91
2023/09/21 09:40:24;;;;;;;3.23;1.63;;;19.40;99.90;;;;;;1899969;75;25593;-91
2023/09/21 09:43:15;;;;;;;3.67;1.80;;;19.40;99.90;;;;;;1881504;75;25696;-91
2023/09/21 09:46:08;;;;;;;3.83;2.40;;;19.30;99.90;;;;;;1842482;77;25262;-91
2023/09/21 09:51:52;;;;;;;8.30;2.77;;;19.20;99.90;;;;;;1945839;72;27187;-90
2023/09/21 09:54:42;;;;;;;5.17;2.30;;;19.10;99.90;;;;;;1929071;73;25237;-90
2023/09/21 10:00:23;;;;;;;4.97;2.20;;;19.50;99.90;;;;;;1949578;72;27590;-90
2023/09/21 10:03:13;;;;;;;4.10;2.30;;;19.50;99.90;;;;;;1937263;72;25276;-90
2023/09/21 10:06:05;;;;;;;3.80;2.40;;;19.50;99.90;;;;;;1927375;72;25224;-90
2023/09/21 10:08:56;;;;;;;10.67;2.30;;;19.50;99.90;;;;;;1921124;74;25254;-90
2023/09/21 10:11:48;;;;;;;4.07;2.17;;;19.60;99.90;;;;;;1929014;72;25203;-90
2023/09/21 10:17:28;;;;;;;11.27;2.70;;;19.80;99.90;;;;;;1919929;72;27068;-90
2023/09/21 10:20:24;;;;;;;4.93;2.30;;;19.80;99.90;;;;;;1904996;73;25291;-90
2023/09/21 10:23:10;;;;;;;5.47;2.10;;;19.80;99.90;;;;;;1891947;73;25168;-90
2023/09/21 10:25:58;;;;;;;3.80;2.10;;;19.80;99.90;;;;;;1931133;73;26601;-90
2023/09/21 10:28:50;;;;;;;7.03;2.33;;;19.90;99.90;;;;;;1899823;73;25227;-90
2023/09/21 10:31:41;;;;;;;5.00;1.90;;;19.90;99.90;;;;;;1909300;73;25660;-90
2023/09/21 10:34:32;;;;;;;5.97;2.10;;;19.90;99.90;;;;;;1909926;73;25230;-91
2023/09/21 10:37:28;;;;;;;3.33;2.40;;;19.90;99.90;;;;;;1907674;73;25755;-90
2023/09/21 10:40:24;;;;;;;5.67;2.50;;;20.00;99.90;;;;;;1903906;73;25232;-90
2023/09/21 10:47:00;;;;;;;3.27;2.20;;;20.10;99.90;;;;;;2114382;67;26985;-90
2023/09/21 10:49:50;;;;;;;5.70;2.00;;;20.30;99.90;;;;;;2063499;68;25587;-90
2023/09/21 10:52:41;;;;;;;7.73;2.73;;;20.30;99.90;;;;;;2060280;68;25144;-90
2023/09/21 10:55:29;;;;;;;3.10;2.27;;;20.20;99.90;;;;;;2062611;68;25836;-90
2023/09/21 10:58:21;;;;;;;5.17;2.37;;;20.20;99.90;;;;;;2054953;68;25257;-90
2023/09/21 11:01:10;;;;;;;6.67;2.00;;;20.30;99.90;;;;;;2057003;68;25127;-90
2023/09/21 11:04:00;;;;;;;5.97;2.30;;;20.40;99.90;;;;;;2057522;68;25214;-90
2023/09/21 11:06:49;;;;;;;2.87;2.30;;;20.40;99.90;;;;;;2056082;68;25189;-90
2023/09/21 11:09:38;;;;;;;4.17;2.30;;;20.50;99.90;;;;;;2055181;68;25184;-91
2023/09/21 11:15:16;;;;;;;7.70;2.40;;;20.50;99.90;;;;;;1944099;72;26982;-90
2023/09/21 11:18:05;;;;;;;3.73;2.20;;;20.60;99.90;;;;;;1931793;73;25699;-90
2023/09/21 11:20:54;;;;;;;3.70;2.20;;;20.70;99.90;;;;;;1903269;73;25226;-90
2023/09/21 11:23:43;;;;;;;3.93;2.27;;;20.70;99.90;;;;;;1925379;73;25741;-90
2023/09/21 11:26:33;;;;;;;8.00;2.50;;;20.80;99.90;;;;;;1884265;75;25174;-90
2023/09/21 11:29:22;;;;;;;3.23;2.00;;;20.80;99.90;;;;;;1896961;74;25413;-90
2023/09/21 11:32:16;;;;;;;3.47;2.20;;;20.70;99.90;;;;;;1896469;75;25271;-90
2023/09/21 11:35:04;;;;;;;5.67;2.10;;;20.80;99.90;;;;;;1856396;75;25306;-90
2023/09/21 11:51:51;;;;;;;3.80;2.13;;;20.30;99.90;;;;;;1938844;71;26874;-89
2023/09/21 11:57:34;;;;;;;6.80;2.27;;;20.30;99.90;;;;;;1954571;72;27867;-90
2023/09/21 12:03:14;;;;;;;5.97;2.20;;;20.40;99.90;;;;;;1943513;72;27090;-90
2023/09/21 12:06:03;;;;;;;3.23;1.80;;;20.30;99.90;;;;;;1929420;73;25643;-90
2023/09/21 12:08:52;;;;;;;4.57;2.20;;;20.40;99.90;;;;;;1927651;73;25213;-90
2023/09/21 12:11:41;;;;;;;4.60;2.30;;;20.50;99.90;;;;;;1918798;72;25341;-90
2023/09/21 12:14:30;;;;;;;6.40;2.10;;;20.70;99.90;;;;;;1939513;72;25680;-90
2023/09/21 12:17:19;;;;;;;5.13;2.13;;;21.00;99.90;;;;;;1934083;72;25277;-90
2023/09/21 12:20:17;;;;;;;3.27;2.03;;;21.30;99.90;;;;;;1943755;72;25735;-90
2023/09/21 12:23:06;;;;;;;3.30;2.03;;;21.50;99.90;;;;;;1938914;72;25280;-90
2023/09/21 12:25:51;;;;;;;2.40;2.00;;;21.70;99.90;;;;;;1950020;72;26509;-90
2023/09/21 12:28:40;;;;;;;4.23;2.20;;;21.70;99.90;;;;;;1929607;73;25288;-90
2023/09/21 12:31:29;;;;;;;8.03;2.27;;;21.70;99.90;;;;;;1939845;72;25323;-91
2023/09/21 12:34:19;;;;;;;4.43;2.07;;;21.60;99.90;;;;;;1932809;72;25199;-90
2023/09/21 12:37:07;;;;;;;3.97;1.90;;;21.60;99.90;;;;;;1948626;72;25634;-92
2023/09/21 12:39:56;;;;;;;2.50;1.83;;;21.50;99.90;;;;;;1939233;72;25251;-91
2023/09/21 12:45:35;;;;;;;4.37;2.20;;;21.60;99.90;;;;;;1952444;72;27038;-90
2023/09/21 12:48:24;;;;;;;4.53;2.07;;;21.60;99.90;;;;;;1939031;73;25164;-90
2023/09/21 12:51:12;;;;;;;6.07;2.20;;;21.70;99.90;;;;;;1921937;73;25181;-90
2023/09/21 12:54:02;;;;;;;2.63;2.27;;;21.60;99.90;;;;;;1918296;73;25710;-90
2023/09/21 12:56:51;;;;;;;3.33;1.87;;;21.60;99.90;;;;;;1919699;73;25368;-90
2023/09/21 12:59:40;;;;;;;4.77;1.83;;;21.50;99.90;;;;;;1931774;73;25264;-90
2023/09/21 13:02:28;;;;;;;5.27;2.00;;;21.40;99.90;;;;;;1921456;73;25285;-89
2023/09/21 13:05:17;;;;;;;5.83;2.17;;;21.40;99.90;;;;;;1928718;73;25250;-89
2023/09/21 13:08:07;;;;;;;3.10;2.10;;;21.40;99.90;;;;;;1934920;73;25289;-90
2023/09/21 13:10:56;;;;;;;3.73;1.97;;;21.40;99.90;;;;;;1935021;73;25802;-90
2023/09/21 13:13:46;;;;;;;7.47;2.23;;;21.30;99.90;;;;;;1935011;73;25677;-90
2023/09/21 13:16:35;;;;;;;6.00;2.33;;;21.50;99.90;;;;;;1918519;73;25712;-90
2023/09/21 13:24:12;;;;;;;3.40;1.70;;;21.50;99.90;;;;;;2021906;69;26856;-90
2023/09/21 13:27:02;;;;;;;4.13;2.10;;;21.60;99.90;;;;;;1999899;70;25209;-90
2023/09/21 13:29:51;;;;;;;3.00;2.10;;;21.40;99.90;;;;;;1989445;70;25225;-90
2023/09/21 13:32:39;;;;;;;5.17;2.00;;;21.30;99.90;;;;;;1996438;70;25221;-90
2023/09/21 13:35:28;;;;;;;6.23;1.90;;;21.20;99.90;;;;;;1993315;71;25318;-90
2023/09/21 13:41:03;;;;;;;4.77;2.10;;;21.30;99.90;;;;;;1950972;72;27289;-90
2023/09/21 13:43:51;;;;;;;3.67;2.37;;;21.30;99.90;;;;;;1892678;75;25708;-90
2023/09/21 13:46:40;;;;;;;4.37;2.00;;;21.30;99.90;;;;;;1886097;75;25258;-90
2023/09/21 13:49:29;;;;;;;3.80;2.33;;;21.30;99.90;;;;;;1882707;75;25299;-90
2023/09/21 13:52:18;;;;;;;5.73;2.10;;;21.30;99.90;;;;;;1878386;75;25875;-90
2023/09/21 13:57:47;;;;;;;2.80;1.87;;;21.30;99.90;;;;;;1949301;72;27036;-90
2023/09/21 14:00:37;;;;;;;6.33;2.13;;;21.30;99.90;;;;;;1895171;75;25695;-90
2023/09/21 14:07:16;;;;;;;7.60;2.20;;;21.20;99.90;;;;;;1984086;71;26253;-90
2023/09/21 14:10:06;;;;;;;4.20;2.07;;;21.10;99.90;;;;;;1966834;72;25782;-90
2023/09/21 14:19:07;;;;;;;6.13;2.30;;;21.10;99.90;;;;;;1998808;71;27594;-90
2023/09/21 14:21:56;;;;;;;2.83;1.90;;;21.00;99.90;;;;;;1949925;72;25243;-90
2023/09/21 14:24:45;;;;;;;2.43;1.93;;;21.10;99.90;;;;;;1980120;72;25244;-90
2023/09/21 14:27:34;;;;;;;5.20;2.20;;;21.10;99.90;;;;;;1949505;72;25223;-90
2023/09/21 14:30:23;;;;;;;3.60;1.83;;;21.10;99.90;;;;;;2044835;69;25693;-90
2023/09/21 14:33:11;;;;;;;3.97;2.30;;;21.10;99.90;;;;;;2060523;69;25192;-90
2023/09/21 14:36:00;;;;;;;4.93;2.13;;;21.10;99.90;;;;;;2040792;69;25248;-90
2023/09/21 14:41:35;;;;;;;3.37;2.23;;;21.00;99.90;;;;;;1943678;72;26971;-89
2023/09/21 14:44:24;;;;;;;3.73;2.20;;;21.00;99.90;;;;;;1910997;73;25691;-89
2023/09/21 14:47:13;;;;;;;4.10;2.50;;;21.00;99.90;;;;;;1914633;73;25242;-89
2023/09/21 14:50:04;;;;;;;3.97;2.27;;;20.90;99.90;;;;;;1883295;73;25300;-89
2023/09/21 14:52:52;;;;;;;3.07;2.30;;;20.80;99.90;;;;;;1850769;76;25312;-89
2023/09/21 14:55:41;;;;;;;5.83;2.20;;;20.80;99.90;;;;;;1878100;75;25268;-89
2023/09/21 14:58:29;;;;;;;4.40;2.10;;;20.70;99.90;;;;;;1912723;73;25222;-89
2023/09/21 15:01:18;;;;;;;2.87;2.10;;;20.80;99.90;;;;;;1897805;73;25231;-89
2023/09/21 15:04:08;;;;;;;3.47;2.20;;;20.70;99.90;;;;;;1907196;73;25187;-90
2023/09/21 15:09:39;;;;;;;5.27;2.57;;;20.60;99.90;;;;;;1930628;74;27616;-90
2023/09/21 15:12:28;;;;;;;6.27;2.20;;;20.60;99.90;;;;;;1864560;76;25282;-89
2023/09/21 15:15:17;;;;;;;3.10;2.23;;;20.70;99.90;;;;;;1901634;73;25223;-90
2023/09/21 15:18:06;;;;;;;4.13;2.17;;;20.70;99.90;;;;;;1910787;73;25234;-90
2023/09/21 15:20:55;;;;;;;4.43;2.03;;;20.80;99.90;;;;;;1905815;73;25202;-90
2023/09/21 15:23:44;;;;;;;4.17;2.20;;;20.70;99.90;;;;;;1895254;73;25224;-90
2023/09/21 15:26:32;;;;;;;4.33;2.00;;;20.70;99.90;;;;;;1897090;75;25213;-90
2023/09/21 15:29:21;;;;;;;2.27;1.93;;;20.70;99.90;;;;;;1890299;73;25303;-90
2023/09/21 15:32:09;;;;;;;4.87;2.30;;;20.70;99.90;;;;;;1894829;73;25216;-90
2023/09/21 15:34:58;;;;;;;2.30;2.10;;;20.70;99.90;;;;;;1894227;73;25224;-90
2023/09/21 15:37:47;;;;;;;4.60;2.20;;;20.70;99.90;;;;;;1905888;73;25370;-90
2023/09/21 15:43:29;;;;;;;4.70;2.17;;;20.60;99.90;;;;;;1920131;72;27098;-90
2023/09/21 15:49:10;;;;;;;5.57;2.30;;;20.50;99.90;;;;;;1941334;72;27091;-90
2023/09/21 15:51:59;;;;;;;2.90;2.00;;;20.50;99.90;;;;;;1916313;73;25765;-90
2023/09/21 15:54:48;;;;;;;3.40;2.20;;;20.40;99.90;;;;;;1934497;73;25253;-90
2023/09/21 15:57:37;;;;;;;6.20;2.30;;;20.40;99.90;;;;;;1916568;73;25170;-90
2023/09/21 16:00:25;;;;;;;5.33;2.23;;;20.40;99.90;;;;;;1927976;73;25242;-90
2023/09/21 16:03:14;;;;;;;3.30;2.03;;;20.40;99.90;;;;;;1921617;73;25249;-90
2023/09/21 16:06:04;;;;;;;2.33;2.10;;;20.30;99.90;;;;;;1917156;73;25299;-90
2023/09/21 16:08:52;;;;;;;3.83;2.20;;;20.40;99.90;;;;;;1924578;73;25192;-90
2023/09/21 16:11:41;;;;;;;4.33;2.40;;;20.30;99.90;;;;;;1921584;73;25195;-90
2023/09/21 16:14:31;;;;;;;4.83;2.10;;;20.30;99.90;;;;;;1919999;73;25227;-90
2023/09/21 16:17:19;;;;;;;8.37;2.57;;;20.30;99.90;;;;;;1918188;73;25720;-90
2023/09/21 16:20:11;;;;;;;4.50;2.40;;;20.20;99.90;;;;;;1925954;73;25219;-90
2023/09/21 16:22:59;;;;;;;9.23;2.43;;;20.30;99.90;;;;;;1938213;73;25200;-90
2023/09/21 16:29:08;;;;;;;2.73;2.20;;;20.20;99.90;;;;;;2014606;70;27012;-90
2023/09/21 16:31:56;;;;;;;4.90;2.13;;;20.20;99.90;;;;;;1991296;71;25186;-90
2023/09/21 16:34:44;;;;;;;6.03;2.33;;;20.10;99.90;;;;;;2002311;71;25262;-90
2023/09/21 16:37:33;;;;;;;4.20;2.50;;;20.10;99.90;;;;;;2000476;71;25662;-90
2023/09/21 16:40:22;;;;;;;3.23;2.07;;;20.10;99.90;;;;;;1991315;71;25160;-90
2023/09/21 16:46:10;;;;;;;5.60;2.53;;;20.10;99.90;;;;;;1948111;72;27533;-90
2023/09/21 16:48:59;;;;;;;2.60;2.00;;;20.10;99.90;;;;;;1940319;73;25253;-90
2023/09/21 16:51:48;;;;;;;8.10;2.50;;;20.10;99.90;;;;;;1923888;73;25217;-90
2023/09/21 16:54:37;;;;;;;3.20;2.20;;;20.10;99.90;;;;;;1941089;73;25260;-90
2023/09/21 16:57:27;;;;;;;3.00;2.30;;;20.10;99.90;;;;;;1932684;73;25214;-91
2023/09/21 17:00:18;;;;;;;4.30;2.50;;;20.10;99.90;;;;;;1927827;73;25183;-91
2023/09/21 17:03:06;;;;;;;3.33;2.30;;;20.10;99.90;;;;;;1917217;73;25685;-91
2023/09/21 17:05:56;;;;;;;6.00;2.10;;;20.00;99.90;;;;;;1918189;73;25244;-90
2023/09/21 17:08:47;;;;;;;5.53;2.37;;;19.90;99.90;;;;;;1927826;73;25223;-91
2023/09/21 17:11:36;;;;;;;4.80;2.60;;;19.90;99.90;;;;;;1924521;73;25239;-91
2023/09/21 17:14:25;;;;;;;2.57;2.10;;;19.90;99.90;;;;;;1937119;73;25288;-91
2023/09/21 17:30:30;;;;;;;7.20;2.23;;;19.90;99.90;;;;;;1871007;75;27137;-91
2023/09/21 17:59:52;;;;;;;4.40;2.63;;;19.90;99.90;;;;;;1886131;74;26263;-90
2023/09/21 18:16:12;;;;;;;9.30;2.40;;;19.80;99.90;;;;;;1870819;75;27612;-90
2023/09/21 18:33:09;;;;;;;3.37;2.13;;;19.60;99.90;;;;;;1876446;75;27062;-90
2023/09/21 19:41:59;;;;;;;6.30;2.40;;;19.00;99.90;;;;;;1943063;72;27611;-90
2023/09/21 19:44:47;;;;;;;5.87;2.67;;;19.00;99.90;;;;;;1911965;75;25330;-90
2023/09/21 19:47:35;;;;;;;5.67;2.60;;;19.00;99.90;;;;;;1912407;74;25286;-91
2023/09/21 19:50:24;;;;;;;4.63;2.60;;;18.90;99.90;;;;;;1913314;75;25777;-91
2023/09/21 20:07:25;;;;;;;3.30;2.83;;;18.90;99.90;;;;;;1997553;70;26311;-90
2023/09/21 20:13:08;;;;;;;3.53;2.73;;;19.00;99.90;;;;;;1940613;72;26459;-91
2023/09/21 20:15:58;;;;;;;4.87;2.60;;;18.90;99.90;;;;;;1935704;73;25238;-91
2023/09/21 20:18:48;;;;;;;13.50;3.33;;;19.00;99.90;;;;;;1918738;73;25217;-91
2023/09/21 20:21:37;;;;;;;5.13;2.60;;;19.00;99.90;;;;;;1928199;73;25244;-91
2023/09/21 20:24:27;;;;;;;4.93;2.37;;;19.00;99.90;;;;;;1922977;73;25256;-92
2023/09/21 20:27:16;;;;;;;10.47;2.43;;;19.00;99.90;;;;;;1917418;73;25547;-91
2023/09/21 20:30:08;;;;;;;4.67;2.60;;;18.90;99.90;;;;;;1926818;73;25808;-91
2023/09/21 20:32:56;;;;;;;7.70;2.90;;;19.00;99.90;;;;;;1928221;73;25234;-91
2023/09/21 20:35:44;;;;;;;6.00;3.10;;;18.90;99.90;;;;;;1927192;73;25262;-91
2023/09/21 20:38:33;;;;;;;5.67;2.83;;;18.90;99.90;;;;;;1927655;73;25902;-92
2023/09/21 20:41:23;;;;;;;4.50;2.73;;;18.90;99.90;;;;;;1916452;73;25239;-91
2023/09/21 20:58:09;;;;;;;7.10;3.17;;;18.80;99.90;;;;;;1902912;74;26507;-90
2023/09/21 21:07:15;;;;;;;6.70;2.70;;;18.50;99.90;;;;;;1983903;71;27276;-91
2023/09/21 21:10:04;;;;;;;5.67;2.60;;;18.40;99.90;;;;;;1964326;72;25209;-91
2023/09/21 21:12:55;;;;;;;3.57;2.70;;;18.40;99.90;;;;;;1960552;72;25206;-91
2023/09/21 21:15:44;;;;;;;3.93;2.50;;;18.40;99.90;;;;;;1962819;71;25287;-91
2023/09/21 21:18:35;;;;;;;6.23;2.77;;;18.40;99.90;;;;;;1997047;71;25141;-91
2023/09/21 21:21:24;;;;;;;5.57;3.30;;;18.40;99.90;;;;;;1971920;71;25253;-90
2023/09/21 21:24:12;;;;;;;4.40;2.80;;;18.40;99.90;;;;;;1983104;71;25231;-91
2023/09/21 21:32:50;;;;;;;4.07;2.63;;;18.30;99.90;;;;;;1973534;71;27097;-92
2023/09/21 21:35:39;;;;;;;7.63;2.70;;;18.30;99.90;;;;;;2005750;70;25250;-92
2023/09/21 21:38:28;;;;;;;3.50;2.97;;;18.30;99.90;;;;;;2006675;70;25122;-92
2023/09/21 21:55:17;;;;;;;8.30;3.47;;;18.20;99.90;;;;;;1934879;73;26900;-90
2023/09/21 22:00:58;;;;;;;4.97;2.70;;;18.10;99.90;;;;;;1947475;72;27002;-90
2023/09/21 22:03:52;;;;;;;4.53;2.90;;;18.10;99.90;;;;;;1938997;73;25182;-90
2023/09/21 22:06:41;;;;;;;7.23;2.93;;;18.10;99.90;;;;;;1937066;73;25225;-90
2023/09/21 22:09:34;;;;;;;4.73;2.90;;;18.00;99.90;;;;;;1922223;73;25300;-90
2023/09/21 22:12:23;;;;;;;4.77;2.90;;;18.00;99.90;;;;;;1926842;73;25342;-90
2023/09/21 22:15:13;;;;;;;5.30;2.90;;;18.00;99.90;;;;;;1928838;73;25307;-91
2023/09/21 22:20:59;;;;;;;5.73;2.73;;;18.00;99.90;;;;;;1941517;72;26917;-90
2023/09/21 22:23:49;;;;;;;4.87;2.57;;;18.00;99.90;;;;;;1921972;73;25916;-90
2023/09/21 22:29:30;;;;;;;8.10;3.00;;;17.90;99.90;;;;;;1958771;72;26973;-90
2023/09/21 22:32:22;;;;;;;4.23;2.90;;;17.90;99.90;;;;;;1929176;72;25201;-91
2023/09/21 22:35:29;;;;;;;7.10;2.80;;;17.90;99.90;;;;;;1924849;72;25197;-91
2023/09/21 22:52:16;;;;;;;4.50;2.60;;;17.90;99.90;;;;;;1875374;74;26419;-90
2023/09/21 23:37:48;;;;;;;6.00;2.83;;;17.80;99.90;;;;;;1997363;71;26302;-91
2023/09/21 23:57:12;;;;;;;6.20;2.87;;;17.60;99.90;;;;;;1942000;72;26999;-90
